首页
METAR-TAF:

METAR-TAF

机场 :

Albert Whitted Airport

聖彼德斯堡, 佛罗里达州, 美国

纬度: 27-46-04N, 经度: 082-37-34W, 海拔: 2米

当前天气观测

该预报发布于37分钟前的03:53 UTC
风速12节,风向
温度 24°C
湿度 94%
气压 1015 hPa
能見度: 16.1公里
天空无云

METAR: KSPG 050353Z AUTO 17012KT 10SM CLR 24/23 A2998 RMK AO2 SLP150 T02440228

时间: 00:30 (04:30 UTC)


TAF: 丢失

超过4000个机场的气象观测和天气预报(METAR&TAF报告)。

可查询的气象台以黄色和红色小点在地图上表示。

将鼠标移到小点上方,可查看气象台名称。

然后点击查看天气观测和预报。

如需切换地图:点击带黑十字的绿色按钮放大地图;点击带横线的绿色按钮缩小地图;或者点击绿色箭头查看邻近地区的地图。


METAR-TAF: